Time;durP1;ratioP1;P1;durP2;ratioP2;P2;SDS_P1;SDS_P2;PMS_P1;PMS_P2;Temp;Humidity;BMP_temperature;BMP_pressure;BME280_temperature;BME280_humidity;BME280_pressure;Samples;Min_cycle;Max_cycle;Signal;HPM_P1;HPM_P2
2022/08/24 00:00:55;;;;;;;9.25;5.70;;;19.90;92.10;;;;;;4934663;29;20070;-63
2022/08/24 00:03:21;;;;;;;7.82;5.45;;;19.90;92.20;;;;;;4934758;29;20063;-59
2022/08/24 00:05:47;;;;;;;8.70;5.68;;;19.90;92.30;;;;;;4933662;29;20042;-61
2022/08/24 00:08:13;;;;;;;7.45;5.82;;;19.80;92.40;;;;;;4934380;29;20050;-58
2022/08/24 00:10:39;;;;;;;6.47;5.18;;;19.80;92.50;;;;;;4934231;29;20039;-68
2022/08/24 00:13:05;;;;;;;12.10;5.30;;;19.80;92.50;;;;;;4934163;29;20032;-67
2022/08/24 00:15:31;;;;;;;8.77;5.97;;;19.70;92.60;;;;;;4934354;29;20043;-66
2022/08/24 00:17:57;;;;;;;8.05;5.82;;;19.60;92.80;;;;;;4934693;29;20035;-67
2022/08/24 00:20:22;;;;;;;8.23;5.70;;;19.50;92.90;;;;;;4933858;29;20040;-67
2022/08/24 00:22:48;;;;;;;6.70;5.28;;;19.40;93.10;;;;;;4934237;29;20357;-65
2022/08/24 00:25:14;;;;;;;7.90;5.78;;;19.40;93.10;;;;;;4934829;29;20115;-60
2022/08/24 00:27:41;;;;;;;6.90;5.50;;;19.30;93.20;;;;;;4933424;29;20464;-61
2022/08/24 00:30:09;;;;;;;8.85;5.65;;;19.30;93.40;;;;;;4934354;29;20321;-62
2022/08/24 00:32:36;;;;;;;8.05;5.55;;;19.30;93.40;;;;;;4933776;29;20035;-60
2022/08/24 00:35:04;;;;;;;9.00;4.93;;;19.20;93.50;;;;;;4933758;29;20046;-61
2022/08/24 00:37:29;;;;;;;10.65;6.32;;;19.20;93.70;;;;;;4933955;29;20095;-66
2022/08/24 00:39:56;;;;;;;8.88;6.13;;;19.20;93.90;;;;;;4934493;29;20120;-68
2022/08/24 00:42:22;;;;;;;9.75;6.53;;;19.10;94.00;;;;;;4933906;29;20064;-65
2022/08/24 00:44:47;;;;;;;6.40;5.20;;;19.10;94.00;;;;;;4934172;29;20397;-61
2022/08/24 00:47:21;;;;;;;8.02;6.18;;;19.10;94.00;;;;;;4934258;29;20019;-58
2022/08/24 00:49:59;;;;;;;7.35;5.50;;;19.10;94.00;;;;;;4933435;29;20028;-59
2022/08/24 00:52:34;;;;;;;8.35;6.13;;;19.10;94.10;;;;;;4934221;29;20036;-58
2022/08/24 00:55:06;;;;;;;8.35;6.30;;;19.00;94.20;;;;;;4936405;29;20024;-59
2022/08/24 00:57:36;;;;;;;7.18;5.57;;;19.00;94.40;;;;;;4937827;29;20032;-59
2022/08/24 01:00:10;;;;;;;10.18;6.65;;;19.00;94.50;;;;;;4937904;29;20542;-58
2022/08/24 01:02:40;;;;;;;9.27;6.97;;;19.00;94.60;;;;;;4936977;29;20024;-58
2022/08/24 01:05:08;;;;;;;9.20;6.28;;;19.00;94.70;;;;;;4937782;29;20134;-61
2022/08/24 01:07:35;;;;;;;8.70;6.10;;;19.00;94.70;;;;;;4937474;29;20549;-61
2022/08/24 01:10:06;;;;;;;11.02;7.05;;;19.00;94.80;;;;;;4937149;29;20023;-66
2022/08/24 01:12:35;;;;;;;9.15;6.43;;;18.90;94.90;;;;;;4937384;29;20481;-59
2022/08/24 01:15:05;;;;;;;7.32;6.28;;;18.90;95.20;;;;;;4937846;29;20020;-67
2022/08/24 01:20:16;;;;;;;9.48;5.97;;;18.80;94.90;;;;;;4937768;29;20046;-64
2022/08/24 01:23:01;;;;;;;9.07;6.00;;;18.70;94.90;;;;;;4936711;29;20035;-59
2022/08/24 01:25:29;;;;;;;9.05;6.35;;;18.70;95.00;;;;;;4937245;29;20107;-59
2022/08/24 01:27:59;;;;;;;7.60;6.00;;;18.70;95.10;;;;;;4937287;29;20028;-64
2022/08/24 01:30:27;;;;;;;9.57;6.15;;;18.70;95.10;;;;;;4935650;29;20040;-60
2022/08/24 01:32:55;;;;;;;7.88;5.50;;;18.60;95.20;;;;;;4937045;29;20061;-60
2022/08/24 01:35:21;;;;;;;8.13;5.95;;;18.60;95.20;;;;;;4937337;29;20028;-63
2022/08/24 01:37:47;;;;;;;7.45;5.55;;;18.60;95.30;;;;;;4936426;29;20124;-62
2022/08/24 01:40:13;;;;;;;8.77;6.13;;;18.60;95.40;;;;;;4937045;29;20050;-63
2022/08/24 01:42:39;;;;;;;10.93;6.88;;;18.60;95.40;;;;;;4936740;29;20028;-61
2022/08/24 01:45:05;;;;;;;9.82;6.88;;;18.70;95.60;;;;;;4936614;29;20027;-59
2022/08/24 01:47:30;;;;;;;8.75;6.75;;;18.60;95.70;;;;;;4937053;29;20055;-60
2022/08/24 01:49:56;;;;;;;10.38;6.88;;;18.70;95.70;;;;;;4937099;29;20028;-62
2022/08/24 01:52:24;;;;;;;9.98;7.25;;;18.70;95.70;;;;;;4936646;29;20020;-65
2022/08/24 01:54:50;;;;;;;10.30;7.28;;;18.60;95.70;;;;;;4936654;29;20024;-67
2022/08/24 01:57:16;;;;;;;9.77;7.10;;;18.70;95.70;;;;;;4935760;29;20023;-66
2022/08/24 01:59:42;;;;;;;10.20;7.15;;;18.70;95.80;;;;;;4934260;29;20031;-62
2022/08/24 02:02:15;;;;;;;10.80;7.45;;;18.60;95.90;;;;;;4936513;29;20032;-65
2022/08/24 02:04:40;;;;;;;11.75;7.93;;;18.60;96.00;;;;;;4935887;29;20036;-64
2022/08/24 02:07:08;;;;;;;11.05;7.75;;;18.60;96.10;;;;;;4936175;29;20024;-66
2022/08/24 02:09:34;;;;;;;9.55;7.13;;;18.60;96.20;;;;;;4936925;29;20038;-67
2022/08/24 02:12:00;;;;;;;10.27;7.03;;;18.60;96.30;;;;;;4936020;29;20460;-67
2022/08/24 02:14:27;;;;;;;11.93;8.27;;;18.50;96.40;;;;;;4936534;29;20028;-68
2022/08/24 02:16:52;;;;;;;10.93;6.97;;;18.50;96.60;;;;;;4936574;29;20540;-61
2022/08/24 02:19:18;;;;;;;12.68;7.57;;;18.40;96.60;;;;;;4936021;29;20032;-66
2022/08/24 02:21:43;;;;;;;10.60;6.90;;;18.40;96.50;;;;;;4935067;29;20031;-67
2022/08/24 02:24:09;;;;;;;9.07;6.57;;;18.50;96.50;;;;;;4936310;29;20030;-67
2022/08/24 02:26:35;;;;;;;10.73;7.40;;;18.50;96.40;;;;;;4935888;29;20102;-68
2022/08/24 02:29:00;;;;;;;10.93;8.02;;;18.50;96.40;;;;;;4936469;29;20469;-68
2022/08/24 02:31:26;;;;;;;10.18;6.97;;;18.50;96.50;;;;;;4936566;29;20476;-68
2022/08/24 02:33:52;;;;;;;10.32;7.38;;;18.50;96.40;;;;;;4935819;29;20132;-67
2022/08/24 02:36:17;;;;;;;9.95;7.40;;;18.50;96.40;;;;;;4936644;29;20034;-68
2022/08/24 02:38:43;;;;;;;8.52;6.93;;;18.50;96.30;;;;;;4936118;29;20024;-65
2022/08/24 02:41:10;;;;;;;9.88;7.32;;;18.50;96.30;;;;;;4935496;29;20039;-63
2022/08/24 02:43:36;;;;;;;11.07;7.53;;;18.50;96.40;;;;;;4935943;29;20020;-68
2022/08/24 02:46:01;;;;;;;10.38;7.38;;;18.40;96.50;;;;;;4936197;29;20399;-66
2022/08/24 02:48:28;;;;;;;11.15;8.02;;;18.40;96.60;;;;;;4935321;29;20032;-65
2022/08/24 02:50:54;;;;;;;8.48;6.55;;;18.30;96.60;;;;;;4936159;29;20429;-69
2022/08/24 02:53:20;;;;;;;9.63;7.22;;;18.30;96.70;;;;;;4936105;29;20023;-66
2022/08/24 02:55:46;;;;;;;9.00;7.05;;;18.30;96.80;;;;;;4934981;29;20481;-59
2022/08/24 02:58:15;;;;;;;9.90;6.60;;;18.20;97.00;;;;;;4935905;29;20042;-60
2022/08/24 03:00:42;;;;;;;10.70;6.60;;;18.20;97.00;;;;;;4935282;29;20051;-58
2022/08/24 03:03:09;;;;;;;11.05;6.93;;;18.10;97.10;;;;;;4934999;29;20047;-60
2022/08/24 03:05:35;;;;;;;9.68;6.28;;;18.20;97.20;;;;;;4935369;29;20084;-62
2022/08/24 03:08:01;;;;;;;8.65;6.40;;;18.20;97.10;;;;;;4935419;29;20031;-60
2022/08/24 03:10:27;;;;;;;7.97;5.93;;;18.10;97.10;;;;;;4934815;29;20027;-59
2022/08/24 03:12:52;;;;;;;8.32;6.38;;;18.10;97.10;;;;;;4934315;29;20111;-55
2022/08/24 03:15:20;;;;;;;7.82;6.25;;;18.00;97.20;;;;;;4935035;29;20432;-57
2022/08/24 03:17:46;;;;;;;8.32;6.05;;;18.00;97.20;;;;;;4934273;29;20059;-59
2022/08/24 03:20:14;;;;;;;7.43;5.15;;;18.00;97.20;;;;;;4935317;29;20067;-58
2022/08/24 03:22:40;;;;;;;7.05;4.85;;;17.90;97.20;;;;;;4934338;29;20484;-56
2022/08/24 03:25:07;;;;;;;7.65;5.60;;;17.90;97.20;;;;;;4935367;29;20027;-59
2022/08/24 03:27:33;;;;;;;8.30;5.93;;;17.90;97.30;;;;;;4935092;29;20072;-57
2022/08/24 03:30:00;;;;;;;7.68;5.15;;;17.80;97.30;;;;;;4934586;29;20517;-55
2022/08/24 03:32:25;;;;;;;7.68;4.70;;;17.80;97.30;;;;;;4934915;29;20023;-55
2022/08/24 03:34:51;;;;;;;5.60;4.25;;;17.80;97.30;;;;;;4934494;29;20408;-60
2022/08/24 03:37:17;;;;;;;4.65;3.90;;;17.80;97.30;;;;;;4934617;29;20213;-62
2022/08/24 03:39:43;;;;;;;5.38;4.32;;;17.80;97.30;;;;;;4934827;29;20039;-66
2022/08/24 03:42:08;;;;;;;6.40;3.95;;;17.70;97.20;;;;;;4935186;29;20028;-61
2022/08/24 03:44:34;;;;;;;6.75;4.28;;;17.70;97.20;;;;;;4934271;29;20560;-65
2022/08/24 03:46:59;;;;;;;6.10;4.28;;;17.70;97.20;;;;;;4935157;29;20027;-64
2022/08/24 03:49:25;;;;;;;5.88;4.32;;;17.70;97.20;;;;;;4934836;29;20483;-65
2022/08/24 03:51:51;;;;;;;5.43;3.95;;;17.70;97.20;;;;;;4934161;29;20024;-61
2022/08/24 03:54:17;;;;;;;8.40;4.28;;;17.70;97.20;;;;;;4933761;29;20099;-61
2022/08/24 03:56:44;;;;;;;7.38;5.13;;;17.60;97.10;;;;;;4934812;29;20071;-66
2022/08/24 03:59:10;;;;;;;7.38;4.90;;;17.60;97.10;;;;;;4934248;29;20059;-60
2022/08/24 04:01:37;;;;;;;6.55;4.55;;;17.60;97.10;;;;;;4934614;29;20055;-62
2022/08/24 04:04:04;;;;;;;7.45;5.03;;;17.60;97.10;;;;;;4934717;29;20047;-64
2022/08/24 04:06:29;;;;;;;6.15;4.50;;;17.60;97.20;;;;;;4933662;29;20473;-66
2022/08/24 04:08:55;;;;;;;5.63;4.28;;;17.60;97.50;;;;;;4934683;29;20034;-62
2022/08/24 04:11:24;;;;;;;5.55;4.07;;;17.50;97.60;;;;;;4934586;29;20110;-64
2022/08/24 04:13:52;;;;;;;6.05;4.72;;;17.40;97.70;;;;;;4933816;29;20023;-64
2022/08/24 04:16:19;;;;;;;7.07;4.45;;;17.40;97.80;;;;;;4934692;29;20130;-57
2022/08/24 04:18:45;;;;;;;6.78;4.47;;;17.40;97.80;;;;;;4933982;29;20422;-66
2022/08/24 04:21:29;;;;;;;7.03;4.60;;;17.40;97.80;;;;;;4934517;29;20043;-64
2022/08/24 04:23:55;;;;;;;6.20;4.10;;;17.30;97.70;;;;;;4934662;29;20039;-66
2022/08/24 04:26:23;;;;;;;5.28;3.90;;;17.30;97.70;;;;;;4932744;29;20020;-66
2022/08/24 04:28:49;;;;;;;6.22;3.97;;;17.30;97.70;;;;;;4933867;29;20472;-65
2022/08/24 04:31:17;;;;;;;5.40;3.60;;;17.30;97.60;;;;;;4934457;29;20023;-66
2022/08/24 04:33:43;;;;;;;6.47;3.88;;;17.30;97.60;;;;;;4933324;29;20516;-61
2022/08/24 04:36:10;;;;;;;5.97;3.72;;;17.30;97.70;;;;;;4934327;29;20051;-62
2022/08/24 04:38:36;;;;;;;6.97;4.00;;;17.30;97.70;;;;;;4934591;29;20047;-65
2022/08/24 04:41:07;;;;;;;6.35;4.20;;;17.20;97.70;;;;;;4933615;29;20074;-66
2022/08/24 04:43:34;;;;;;;6.32;4.05;;;17.20;97.80;;;;;;4934089;29;20098;-67
2022/08/24 04:46:04;;;;;;;8.02;5.07;;;17.20;97.80;;;;;;4933024;29;20114;-64
2022/08/24 04:48:30;;;;;;;6.75;4.82;;;17.20;97.80;;;;;;4933546;29;20028;-66
2022/08/24 04:51:01;;;;;;;9.25;5.32;;;17.20;97.90;;;;;;4934176;29;20086;-66
2022/08/24 04:53:27;;;;;;;9.07;5.30;;;17.20;98.00;;;;;;4933949;29;20626;-63
2022/08/24 04:55:53;;;;;;;6.35;4.40;;;17.20;97.90;;;;;;4933699;29;20032;-67
2022/08/24 04:58:18;;;;;;;6.85;4.53;;;17.20;97.80;;;;;;4934310;29;20384;-67
2022/08/24 05:00:45;;;;;;;6.80;4.38;;;17.30;97.80;;;;;;4932223;29;20071;-67
2022/08/24 05:03:11;;;;;;;7.25;4.90;;;17.30;97.70;;;;;;4934152;29;20020;-66
2022/08/24 05:05:43;;;;;;;8.30;5.50;;;17.30;97.60;;;;;;4934170;29;20028;-63
2022/08/24 05:08:09;;;;;;;7.97;5.75;;;17.30;97.70;;;;;;4933333;29;20024;-63
2022/08/24 05:10:38;;;;;;;8.15;5.28;;;17.40;98.00;;;;;;4933811;29;20050;-60
2022/08/24 05:13:04;;;;;;;7.00;4.93;;;17.40;97.60;;;;;;4933635;29;20492;-59
2022/08/24 05:15:30;;;;;;;7.45;5.00;;;17.40;97.60;;;;;;4931804;29;20024;-61
2022/08/24 05:17:55;;;;;;;7.10;5.00;;;17.50;97.50;;;;;;4931886;29;20496;-55
2022/08/24 05:20:22;;;;;;;7.88;5.72;;;17.50;97.50;;;;;;4933867;29;20043;-56
2022/08/24 05:22:50;;;;;;;7.95;4.97;;;17.50;97.40;;;;;;4933757;29;20159;-64
2022/08/24 05:25:16;;;;;;;7.95;5.50;;;17.60;97.30;;;;;;4934279;29;20034;-59
2022/08/24 05:27:42;;;;;;;9.13;5.85;;;17.60;97.20;;;;;;4933117;29;20028;-58
2022/08/24 05:30:09;;;;;;;8.25;5.93;;;17.70;97.20;;;;;;4931747;29;20031;-57
2022/08/24 05:32:36;;;;;;;9.45;5.57;;;17.80;97.20;;;;;;4933730;29;20028;-62
2022/08/24 05:35:03;;;;;;;7.80;5.80;;;17.80;97.10;;;;;;4933796;29;20071;-54
2022/08/24 05:37:30;;;;;;;9.23;6.15;;;17.90;97.10;;;;;;4951058;29;20042;-51
2022/08/24 05:39:56;;;;;;;9.25;6.38;;;17.90;97.20;;;;;;4954083;28;20054;-57
2022/08/24 05:42:22;;;;;;;9.57;5.85;;;17.90;97.20;;;;;;4956766;29;20472;-61
2022/08/24 05:44:47;;;;;;;8.50;5.82;;;17.90;97.10;;;;;;4955546;29;20429;-63
2022/08/24 05:47:13;;;;;;;9.68;6.55;;;18.00;97.10;;;;;;4952619;29;20020;-59
2022/08/24 05:49:38;;;;;;;9.75;5.68;;;18.10;97.20;;;;;;4936835;29;20027;-62
2022/08/24 05:52:04;;;;;;;8.25;5.72;;;18.10;97.10;;;;;;4936254;29;20575;-61
2022/08/24 05:54:30;;;;;;;8.40;5.60;;;18.20;97.00;;;;;;4936718;29;20062;-57
2022/08/24 05:57:00;;;;;;;9.35;4.57;;;18.30;96.90;;;;;;4936648;29;20094;-66
2022/08/24 05:59:26;;;;;;;6.93;5.05;;;18.40;96.80;;;;;;4936689;29;20024;-59
2022/08/24 06:01:52;;;;;;;6.40;4.95;;;18.50;96.70;;;;;;4935605;29;20039;-57
2022/08/24 06:04:18;;;;;;;6.32;4.50;;;18.60;96.50;;;;;;4935431;29;20027;-59
2022/08/24 06:06:44;;;;;;;7.95;5.68;;;18.60;96.40;;;;;;4936564;29;20083;-61
2022/08/24 06:09:10;;;;;;;9.50;6.65;;;18.70;96.30;;;;;;4935667;29;20025;-63
2022/08/24 06:11:38;;;;;;;10.27;6.68;;;18.80;96.30;;;;;;4935909;29;20035;-60
2022/08/24 06:14:08;;;;;;;9.50;7.15;;;18.90;96.20;;;;;;4936645;29;20047;-59
2022/08/24 06:16:41;;;;;;;9.13;6.72;;;19.00;96.20;;;;;;4936318;29;20027;-60
2022/08/24 06:19:09;;;;;;;10.35;7.10;;;19.10;96.10;;;;;;4934893;29;20110;-61
2022/08/24 06:21:34;;;;;;;12.32;7.90;;;19.10;96.00;;;;;;4935344;29;20039;-63
2022/08/24 06:24:00;;;;;;;11.95;8.38;;;19.20;96.10;;;;;;4936692;29;20123;-59
2022/08/24 06:29:11;;;;;;;20.75;10.77;;;19.40;96.10;;;;;;4934652;29;20039;-56
2022/08/24 06:31:39;;;;;;;23.98;14.55;;;19.50;96.10;;;;;;4933724;29;20405;-60
2022/08/24 06:34:06;;;;;;;29.35;20.08;;;19.60;96.40;;;;;;4932884;29;20056;-64
2022/08/24 06:36:32;;;;;;;23.23;16.90;;;19.70;96.50;;;;;;4935077;29;20055;-64
2022/08/24 06:38:57;;;;;;;24.25;17.23;;;19.70;96.30;;;;;;4935560;29;20055;-60
2022/08/24 06:41:24;;;;;;;27.42;16.95;;;19.80;96.30;;;;;;4921173;29;20111;-63
2022/08/24 06:43:51;;;;;;;26.70;17.95;;;19.90;96.20;;;;;;4924004;29;20028;-58
2022/08/24 06:46:17;;;;;;;32.25;21.13;;;19.90;96.10;;;;;;4928004;29;20043;-60
2022/08/24 06:48:42;;;;;;;28.92;20.15;;;20.00;96.10;;;;;;4933354;29;20028;-61
2022/08/24 06:51:16;;;;;;;22.70;17.05;;;20.10;96.00;;;;;;4932785;29;20507;-65
2022/08/24 06:53:42;;;;;;;23.63;16.95;;;20.20;95.80;;;;;;4932440;29;20028;-64
2022/08/24 06:56:09;;;;;;;26.85;17.85;;;20.30;95.70;;;;;;4934469;29;20058;-65
2022/08/24 06:58:35;;;;;;;29.33;19.13;;;20.30;95.60;;;;;;4934166;29;20024;-65
2022/08/24 07:01:16;;;;;;;26.88;18.77;;;20.40;95.50;;;;;;4935530;29;20062;-65
2022/08/24 07:03:43;;;;;;;24.63;16.55;;;20.40;95.40;;;;;;4916018;29;20020;-66
2022/08/24 07:06:11;;;;;;;25.98;18.70;;;20.60;95.30;;;;;;4916250;29;20039;-64
2022/08/24 07:08:37;;;;;;;32.88;22.48;;;20.60;95.10;;;;;;4916859;29;20026;-66
2022/08/24 07:11:03;;;;;;;31.60;21.98;;;20.80;95.20;;;;;;4916886;29;20095;-66
2022/08/24 07:13:30;;;;;;;36.63;24.08;;;20.80;95.00;;;;;;4915886;29;20032;-63
2022/08/24 07:15:56;;;;;;;32.63;22.75;;;21.00;95.00;;;;;;4916717;29;20024;-62
2022/08/24 07:18:22;;;;;;;27.48;18.63;;;21.10;94.90;;;;;;4916638;29;20024;-62
2022/08/24 07:20:49;;;;;;;27.20;19.77;;;21.20;94.70;;;;;;4915532;29;20050;-61
2022/08/24 07:23:16;;;;;;;25.92;18.17;;;21.30;94.60;;;;;;4916487;29;20017;-60
2022/08/24 07:25:44;;;;;;;29.15;19.40;;;21.40;94.40;;;;;;4916064;29;20031;-64
2022/08/24 07:28:10;;;;;;;24.50;16.70;;;21.50;94.20;;;;;;4915773;29;20016;-63
2022/08/24 07:30:37;;;;;;;21.05;14.82;;;21.60;94.00;;;;;;4915883;29;20039;-62
2022/08/24 07:33:03;;;;;;;15.52;12.35;;;21.70;93.80;;;;;;4916254;29;20107;-62
2022/08/24 07:35:31;;;;;;;20.65;15.00;;;21.80;93.60;;;;;;4915534;29;20119;-60
2022/08/24 07:37:57;;;;;;;20.17;14.27;;;21.80;93.30;;;;;;4916170;29;20024;-60
2022/08/24 07:40:24;;;;;;;17.35;12.63;;;21.90;93.20;;;;;;4916195;29;20083;-61
2022/08/24 07:42:52;;;;;;;19.25;12.50;;;22.10;93.00;;;;;;4915092;29;20083;-61
2022/08/24 07:45:18;;;;;;;16.63;12.70;;;22.20;92.80;;;;;;4916285;29;20107;-62
2022/08/24 07:47:44;;;;;;;22.10;15.30;;;22.30;92.60;;;;;;4915002;29;20465;-63
2022/08/24 07:50:11;;;;;;;16.95;12.45;;;22.50;92.40;;;;;;4916495;29;20026;-62
2022/08/24 07:52:37;;;;;;;17.58;12.35;;;22.60;92.20;;;;;;4915762;29;20029;-61
2022/08/24 07:55:04;;;;;;;16.13;11.55;;;22.70;92.00;;;;;;4915419;29;20100;-62
2022/08/24 07:57:30;;;;;;;16.48;10.90;;;22.80;91.90;;;;;;4915633;29;20516;-61
2022/08/24 07:59:58;;;;;;;12.10;9.52;;;22.90;91.70;;;;;;4915863;29;20040;-61
2022/08/24 08:02:25;;;;;;;9.88;8.15;;;23.00;91.50;;;;;;4913491;29;20075;-64
2022/08/24 08:04:53;;;;;;;10.20;7.80;;;23.10;91.30;;;;;;4915536;29;20020;-62
2022/08/24 08:07:18;;;;;;;12.57;9.10;;;23.20;91.10;;;;;;4915900;29;20452;-63
2022/08/24 08:09:44;;;;;;;14.15;8.88;;;23.30;90.90;;;;;;4914707;29;20024;-61
2022/08/24 08:12:09;;;;;;;17.00;11.40;;;23.40;90.80;;;;;;4915782;29;20481;-61
2022/08/24 08:14:36;;;;;;;14.20;9.98;;;23.50;90.50;;;;;;4915330;29;20039;-63
2022/08/24 08:17:01;;;;;;;11.27;7.80;;;23.60;90.20;;;;;;4914965;29;20051;-62
2022/08/24 08:19:27;;;;;;;17.40;12.40;;;23.70;89.90;;;;;;4914133;29;20115;-62
2022/08/24 08:24:41;;;;;;;14.15;10.98;;;23.90;88.50;;;;;;4914784;29;20043;-63
2022/08/24 08:27:07;;;;;;;12.90;7.65;;;24.00;87.00;;;;;;4915434;29;20028;-65
2022/08/24 08:29:33;;;;;;;9.98;6.88;;;24.10;86.60;;;;;;4915425;29;20035;-67
2022/08/24 08:32:00;;;;;;;11.02;6.93;;;24.20;86.00;;;;;;4914693;29;20118;-66
2022/08/24 08:34:26;;;;;;;6.95;5.22;;;24.40;85.60;;;;;;4913626;29;20087;-62
2022/08/24 08:36:52;;;;;;;10.38;7.32;;;24.50;85.10;;;;;;4914980;29;20095;-62
2022/08/24 08:39:20;;;;;;;11.48;7.18;;;24.50;83.80;;;;;;4915497;29;20414;-66
2022/08/24 08:42:13;;;;;;;7.38;5.10;;;24.60;81.20;;;;;;4914969;29;20119;-66
2022/08/24 08:45:07;;;;;;;7.18;4.93;;;24.70;81.30;;;;;;4914529;29;20027;-66
2022/08/24 08:48:02;;;;;;;8.43;6.10;;;24.80;81.10;;;;;;4915019;29;20034;-65
2022/08/24 08:50:35;;;;;;;8.85;5.72;;;24.90;80.90;;;;;;4914736;29;20482;-65
2022/08/24 08:53:33;;;;;;;6.72;4.30;;;25.00;80.70;;;;;;4914589;29;20470;-64
2022/08/24 08:56:09;;;;;;;7.25;4.13;;;25.10;79.70;;;;;;4915164;29;20044;-64
2022/08/24 08:59:16;;;;;;;5.95;4.43;;;25.30;79.20;;;;;;4914393;29;20524;-65
2022/08/24 09:02:18;;;;;;;6.30;3.85;;;25.30;78.80;;;;;;4915085;29;20384;-63
2022/08/24 09:04:49;;;;;;;9.25;4.60;;;25.40;78.20;;;;;;4914894;29;20538;-65
2022/08/24 09:07:23;;;;;;;6.60;3.90;;;25.50;77.50;;;;;;4913397;29;20028;-65
2022/08/24 09:10:11;;;;;;;6.72;4.40;;;25.50;77.40;;;;;;4914927;29;20016;-65
2022/08/24 09:12:55;;;;;;;10.75;5.22;;;25.60;77.10;;;;;;4914262;29;20036;-65
2022/08/24 09:15:36;;;;;;;5.85;3.95;;;25.60;76.30;;;;;;4916826;29;20062;-65
2022/08/24 09:18:11;;;;;;;5.50;3.85;;;25.60;76.10;;;;;;4918779;29;20396;-64
2022/08/24 09:21:01;;;;;;;8.07;3.47;;;25.80;76.70;;;;;;4917781;29;20036;-65
2022/08/24 09:23:54;;;;;;;5.17;2.43;;;25.90;75.60;;;;;;4918636;29;20020;-60
2022/08/24 09:26:26;;;;;;;4.40;2.22;;;25.90;74.70;;;;;;4918248;29;20279;-59
2022/08/24 09:29:03;;;;;;;4.20;2.80;;;26.00;74.30;;;;;;4918707;29;20020;-60
2022/08/24 09:31:55;;;;;;;4.60;2.67;;;26.20;73.50;;;;;;4918092;29;20070;-59
2022/08/24 09:34:35;;;;;;;3.75;2.58;;;26.20;73.10;;;;;;4917657;29;20044;-59
2022/08/24 09:37:27;;;;;;;3.90;2.50;;;26.30;73.00;;;;;;4918554;29;20032;-60
2022/08/24 09:40:25;;;;;;;5.47;3.10;;;26.40;72.70;;;;;;4918244;29;20036;-61
2022/08/24 09:43:09;;;;;;;4.15;2.50;;;26.40;71.90;;;;;;4917736;29;20044;-59
2022/08/24 09:45:43;;;;;;;4.35;2.50;;;26.40;72.00;;;;;;4917801;29;20480;-60
2022/08/24 09:48:44;;;;;;;2.78;1.80;;;26.50;72.00;;;;;;4917577;29;20028;-61
2022/08/24 09:51:38;;;;;;;1.55;1.33;;;26.60;71.20;;;;;;4918211;29;20032;-60
2022/08/24 09:54:29;;;;;;;2.72;1.77;;;26.60;69.30;;;;;;4918061;29;20032;-61
2022/08/24 09:57:27;;;;;;;2.97;1.77;;;26.60;68.20;;;;;;4918026;29;20024;-61
2022/08/24 10:00:13;;;;;;;3.17;1.65;;;26.70;68.10;;;;;;4918022;29;20553;-62
2022/08/24 10:02:56;;;;;;;2.30;1.75;;;26.80;67.70;;;;;;4917014;29;20032;-61
2022/08/24 10:05:41;;;;;;;3.15;2.15;;;26.90;67.30;;;;;;4918004;29;20028;-64
2022/08/24 10:08:15;;;;;;;3.20;2.08;;;27.00;66.30;;;;;;4917869;29;20037;-65
2022/08/24 10:11:06;;;;;;;2.95;1.48;;;27.00;64.90;;;;;;4917417;29;20035;-65
2022/08/24 10:13:54;;;;;;;1.77;1.40;;;27.00;64.90;;;;;;4917643;29;20091;-64
2022/08/24 10:16:39;;;;;;;1.65;1.30;;;27.10;65.60;;;;;;4917073;29;20032;-63
2022/08/24 10:19:44;;;;;;;2.63;1.52;;;27.10;65.70;;;;;;4917603;29;20036;-60
2022/08/24 10:22:38;;;;;;;1.65;0.98;;;27.30;65.60;;;;;;4917352;29;20066;-63
2022/08/24 10:25:19;;;;;;;1.35;0.98;;;27.30;64.40;;;;;;4915961;29;20033;-61
2022/08/24 10:28:30;;;;;;;1.15;1.08;;;27.40;63.10;;;;;;4917418;29;20055;-63
2022/08/24 10:31:04;;;;;;;3.10;1.00;;;27.50;61.90;;;;;;4891096;29;20043;-65
2022/08/24 10:33:45;;;;;;;1.13;0.90;;;27.60;61.80;;;;;;4917055;29;20044;-61
2022/08/24 10:36:25;;;;;;;1.80;1.15;;;27.60;61.20;;;;;;4917493;29;20035;-64
2022/08/24 10:45:29;;;;;;;2.45;1.40;;;27.80;61.90;;;;;;4917145;29;20058;-64
2022/08/24 10:48:16;;;;;;;2.67;1.60;;;27.80;62.00;;;;;;4915939;29;20024;-61
2022/08/24 10:51:11;;;;;;;1.58;1.08;;;27.90;61.70;;;;;;4916336;29;20024;-64
2022/08/24 10:53:37;;;;;;;1.73;1.00;;;28.00;61.10;;;;;;4916815;29;20036;-65
2022/08/24 10:56:15;;;;;;;1.67;1.05;;;28.10;60.80;;;;;;4917074;29;20020;-64
2022/08/24 10:59:02;;;;;;;2.08;1.27;;;28.20;59.30;;;;;;4916249;29;20521;-61
2022/08/24 11:01:32;;;;;;;1.75;1.30;;;28.30;59.70;;;;;;4916544;29;20040;-65
2022/08/24 11:04:10;;;;;;;2.03;1.40;;;28.20;59.80;;;;;;4931376;29;20116;-64
2022/08/24 11:06:41;;;;;;;1.95;1.25;;;28.20;59.40;;;;;;4915937;29;20032;-65
2022/08/24 11:09:14;;;;;;;1.55;1.10;;;28.20;59.10;;;;;;4931233;29;20431;-65
2022/08/24 11:11:46;;;;;;;2.58;1.30;;;28.30;58.90;;;;;;4915960;29;20131;-65
2022/08/24 11:14:14;;;;;;;2.22;1.20;;;28.40;58.80;;;;;;4916848;29;20438;-66
2022/08/24 11:16:43;;;;;;;1.23;1.08;;;28.40;59.20;;;;;;4916544;29;20525;-66
2022/08/24 11:19:30;;;;;;;2.55;1.42;;;28.50;58.90;;;;;;4916096;29;20047;-65
2022/08/24 11:22:00;;;;;;;2.05;1.40;;;28.70;58.30;;;;;;4915108;29;20481;-64
2022/08/24 11:24:32;;;;;;;1.10;1.00;;;28.80;58.10;;;;;;4916654;29;20035;-62
2022/08/24 11:27:27;;;;;;;2.00;1.23;;;28.90;57.10;;;;;;4916092;29;20039;-66
2022/08/24 11:29:57;;;;;;;2.35;1.65;;;29.00;56.80;;;;;;4910395;29;20371;-66
2022/08/24 11:32:43;;;;;;;1.40;1.30;;;29.00;56.80;;;;;;4916367;29;20031;-67
2022/08/24 11:35:17;;;;;;;2.20;1.40;;;29.10;56.60;;;;;;4916479;29;20066;-62
2022/08/24 11:37:45;;;;;;;1.83;1.42;;;29.20;56.00;;;;;;4913993;29;20028;-64
2022/08/24 11:40:11;;;;;;;2.55;1.38;;;29.20;55.70;;;;;;4915596;29;20032;-61
2022/08/24 11:42:58;;;;;;;1.58;1.20;;;29.10;56.20;;;;;;4915987;29;20024;-62
2022/08/24 11:45:35;;;;;;;1.65;1.20;;;29.10;57.10;;;;;;4916190;29;20047;-61
2022/08/24 11:48:09;;;;;;;1.70;1.30;;;29.10;56.60;;;;;;4915499;29;20025;-61
2022/08/24 11:50:43;;;;;;;2.97;1.40;;;29.20;56.70;;;;;;4915863;29;20028;-61
2022/08/24 11:53:17;;;;;;;2.47;1.40;;;29.30;56.60;;;;;;4916268;29;20107;-61
2022/08/24 11:56:04;;;;;;;1.77;1.27;;;29.40;56.30;;;;;;4915181;29;20036;-62
2022/08/24 11:59:03;;;;;;;3.95;1.20;;;29.50;53.80;;;;;;4915691;29;20028;-65
2022/08/24 12:01:44;;;;;;;2.17;1.45;;;29.50;54.40;;;;;;4895683;29;20067;-62
2022/08/24 12:04:18;;;;;;;2.20;1.60;;;29.50;55.10;;;;;;4915943;29;20032;-65
2022/08/24 12:06:52;;;;;;;2.67;1.48;;;29.60;55.40;;;;;;4915668;29;20032;-63
2022/08/24 12:09:45;;;;;;;1.55;1.33;;;29.60;55.70;;;;;;4915177;29;20050;-61
2022/08/24 12:12:13;;;;;;;3.42;1.48;;;29.70;56.10;;;;;;4914318;29;20079;-65
2022/08/24 12:14:42;;;;;;;2.97;1.50;;;29.70;55.60;;;;;;4915376;29;20456;-60
2022/08/24 12:17:20;;;;;;;2.03;1.42;;;29.70;55.20;;;;;;4915110;29;20389;-61
2022/08/24 12:20:01;;;;;;;2.13;1.50;;;29.70;54.70;;;;;;4915384;29;20049;-65
2022/08/24 12:22:28;;;;;;;2.92;1.35;;;29.70;55.10;;;;;;4914283;29;20040;-60
2022/08/24 12:25:00;;;;;;;1.90;1.63;;;29.80;54.20;;;;;;4915982;29;20024;-64
2022/08/24 12:27:33;;;;;;;2.78;1.42;;;29.80;53.80;;;;;;4915578;29;20398;-62
2022/08/24 12:30:11;;;;;;;1.85;1.30;;;29.90;54.00;;;;;;4914798;29;20028;-63
2022/08/24 12:33:09;;;;;;;2.63;1.50;;;30.00;53.90;;;;;;4915244;29;20084;-65
2022/08/24 12:35:58;;;;;;;2.45;1.50;;;30.10;53.60;;;;;;4904196;29;20048;-65
2022/08/24 12:38:29;;;;;;;1.38;1.10;;;30.10;53.90;;;;;;4915179;29;20032;-64
2022/08/24 12:40:57;;;;;;;;;;;30.00;54.20;;;;;;4915843;29;20056;-61
2022/08/24 12:43:47;;;;;;;2.30;1.33;;;30.10;54.40;;;;;;4914788;29;20373;-61
2022/08/24 12:46:16;;;;;;;2.55;1.33;;;30.20;54.50;;;;;;4915438;29;20027;-61
2022/08/24 12:48:49;;;;;;;2.72;1.55;;;30.10;54.00;;;;;;4916154;29;20039;-64
2022/08/24 12:51:20;;;;;;;2.55;1.15;;;30.10;53.30;;;;;;4918721;29;20083;-65
2022/08/24 12:53:52;;;;;;;2.50;1.30;;;30.10;53.20;;;;;;4918973;29;20362;-61
2022/08/24 12:56:38;;;;;;;2.75;1.40;;;30.20;53.50;;;;;;4919162;29;20470;-63
2022/08/24 12:59:28;;;;;;;1.60;1.15;;;30.20;52.30;;;;;;4918753;29;20021;-63
2022/08/24 13:02:03;;;;;;;2.97;1.30;;;30.10;52.00;;;;;;4919342;29;20036;-65
2022/08/24 13:04:33;;;;;;;1.00;0.90;;;30.20;51.90;;;;;;4918553;29;20532;-61
2022/08/24 13:07:04;;;;;;;1.75;1.15;;;30.40;51.80;;;;;;4919212;29;20032;-65
2022/08/24 13:09:44;;;;;;;3.70;1.40;;;30.60;52.00;;;;;;4918692;29;20020;-65
2022/08/24 13:12:42;;;;;;;2.78;1.30;;;30.70;52.10;;;;;;4918332;29;20023;-65
2022/08/24 13:15:22;;;;;;;2.90;1.40;;;30.80;50.90;;;;;;4919024;29;20028;-64
2022/08/24 13:17:58;;;;;;;2.08;1.10;;;30.70;50.90;;;;;;4918663;29;20034;-65
2022/08/24 13:20:30;;;;;;;2.45;1.38;;;30.50;51.60;;;;;;4918033;29;20489;-66